This is the latest recevied weather packets stored in our database for station/object N7TUG-8. If no packets are shown the sender has not sent any weather packets the latest 10 day(s).
| Time | Temp. | Humidity | Pressure | Rain* | Wind** | Luminosity | Snow |
|---|---|---|---|---|---|---|---|
| 1777512367 | 16.67° C | 69% | 1021.6 hPa | 0 mm | 2.24 m/s, 318° | - | - |
| 1777511636 | 17.22° C | 65% | 1021.7 hPa | 0 mm | 1.34 m/s, 319° | - | - |
| 1777511547 | 17.22° C | 65% | 1021.7 hPa | 0 mm | 1.34 m/s, 319° | - | - |
| 1777510811 | 17.22° C | 68% | 1021.7 hPa | 0 mm | 1.79 m/s, 323° | - | - |
| 1777509896 | 16.11° C | 73% | 1021.9 hPa | 0 mm | 2.68 m/s, 324° | - | - |
| 1777508981 | 16.67° C | 69% | 1021.8 hPa | 0 mm | 2.68 m/s, 306° | - | - |
| 1777508036 | 17.22° C | 67% | 1021.9 hPa | 0 mm | 1.79 m/s, 321° | - | - |
| 1777507534 | 16.67° C | 69% | 1021.9 hPa | 0 mm | 2.24 m/s, 325° | - | - |
| 1777507357 | 16.67° C | 69% | 1021.9 hPa | 0 mm | 2.24 m/s, 325° | - | - |
| 1777507271 | 16.67° C | 69% | 1021.9 hPa | 0 mm | 2.24 m/s, 325° | - | - |
| 1777506496 | 16.67° C | 71% | 1022.1 hPa | 0 mm | 2.24 m/s, 336° | - | - |
| 1777505877 | 16.11° C | 70% | 1022.1 hPa | 0 mm | 2.68 m/s, 351° | - | - |
| 1777505562 | 16.11° C | 70% | 1022.1 hPa | 0 mm | 3.13 m/s, 346° | - | - |
| 1777505017 | 17.22° C | 68% | 1022.1 hPa | 0 mm | 1.79 m/s, 331° | - | - |
| 1777504721 | 16.67° C | 70% | 1022.2 hPa | 0 mm | 2.24 m/s, 340° | - | - |
| 1777504122 | 16.67° C | 69% | 1022.3 hPa | 0 mm | 2.68 m/s, 342° | - | - |
| 1777503831 | 17.22° C | 69% | 1022.5 hPa | 0 mm | 1.34 m/s, 338° | - | - |
| 1777503342 | 16.67° C | 70% | 1022.5 hPa | 0 mm | 2.68 m/s, 316° | - | - |
| 1777502931 | 16.11° C | 72% | 1022.5 hPa | 0 mm | 3.58 m/s, 327° | - | - |
| 1777502136 | 15.56° C | 73% | 1022.7 hPa | 0 mm | 4.02 m/s, 317° | - | - |
| 1777501747 | 16.11° C | 70% | 1022.8 hPa | 0 mm | 3.58 m/s, 315° | - | - |
| 1777501286 | 16.11° C | 70% | 1022.9 hPa | 0 mm | 3.13 m/s, 314° | - | - |
| 1777500521 | 16.11° C | 71% | 1023.1 hPa | 0 mm | 3.58 m/s, 336° | - | - |
| 1777500062 | 16.11° C | 72% | 1023.1 hPa | 0 mm | 3.58 m/s, 328° | - | - |
| 1777499741 | 15.56° C | 72% | 1023.1 hPa | 0 mm | 4.47 m/s, 340° | - | - |
* Rain latest hour (hover to see other rain measurements)
** Current wind speed in m/s (hover to see current wind gust speed)